Palmers Lookout, Australia
Current Conditions -  °F | °C
As of 11:00 AM on Tuesday 25 Nov 2014 (Local Time) from YMHB Reporting Station
Scattered Clouds Scattered Clouds  
Wind Chill: 63°   Ceiling: Unl
Heat Index: 63°   Visibility: 6mi
Dew Point: 36°   Wind: 16mph
Humidity: 37%   Direction: 290°WNW
Pressure: 29.71"   Gusts: 32mph
Location:  43.17°S, 147.83°E
Report Text: YMHB 250000Z 29014G28KT 9999 SCT050 17/02 Q1006
Loading
Personal Weather Stations






























Interactive Weather Map New forecast layout! Learn more

10-Day Weather Forecast

Advertisements
Track Severe Weather on mobile